Hua-lien, Taiwan
Current Conditions -  °F | °C
As of 8:30 PM on Friday 24 Oct 2014 (Local Time) from RCMQ Reporting Station
Scattered Clouds Scattered Clouds  
Wind Chill: 70°   Ceiling: Unl
Heat Index: 70°   Visibility: 6mi
Dew Point: 66°   Wind: 8mph
Humidity: 88%   Direction: 360°N
Pressure: 30"   Gusts: NA
Location:  24.02°N, 121.62°E
Report Text: RCMQ 241230Z 36007KT 9999 FEW012 SCT100 21/19 Q1016 NOSIG RMK A3001
Loading
Personal Weather Stations






























Interactive Weather Map
Tropical Storm Tracking
New forecast layout! Learn more

10-Day Weather Forecast

Advertisements
Track Severe Weather on mobile